createdAt,value
2018-07-19T00:01:49.801Z,98228.88
2018-07-19T00:04:18.863Z,98226.67
2018-07-19T00:06:47.814Z,98215.95
2018-07-19T00:09:16.817Z,98222.50
2018-07-19T00:11:45.769Z,98221.16
2018-07-19T00:14:14.732Z,98211.81
2018-07-19T00:16:43.757Z,98198.92
2018-07-19T00:19:12.730Z,98212.63
2018-07-19T00:21:41.837Z,98204.03
2018-07-19T00:24:11.169Z,98206.87
2018-07-19T00:26:40.194Z,98200.80
2018-07-19T00:29:09.108Z,98192.13
2018-07-19T00:31:38.182Z,98183.28
2018-07-19T00:34:07.202Z,98178.87
2018-07-19T00:36:36.202Z,98173.59
2018-07-19T00:39:06.511Z,98174.31
2018-07-19T00:41:35.542Z,98164.12
2018-07-19T00:44:04.759Z,98145.50
2018-07-19T00:46:33.912Z,98158.38
2018-07-19T00:49:02.855Z,98158.02
2018-07-19T00:51:31.820Z,98140.60
2018-07-19T00:54:00.818Z,98161.16
2018-07-19T00:56:29.772Z,98158.45
2018-07-19T00:58:58.723Z,98152.95
2018-07-19T01:01:27.776Z,98155.34
2018-07-19T01:03:56.801Z,98147.16
2018-07-19T01:06:25.783Z,98136.44
2018-07-19T01:08:54.782Z,98140.80
2018-07-19T01:11:23.834Z,98139.95
2018-07-19T01:13:52.819Z,98140.30
2018-07-19T01:16:21.842Z,98133.69
2018-07-19T01:18:50.993Z,98134.77
2018-07-19T01:21:20.021Z,98130.02
2018-07-19T01:23:49.000Z,98127.52
2018-07-19T01:26:17.909Z,98141.22
2018-07-19T01:28:46.837Z,98139.59
2018-07-19T01:31:16.177Z,98145.05
2018-07-19T01:33:45.273Z,98146.27
2018-07-19T01:36:14.314Z,98144.77
2018-07-19T01:38:43.338Z,98142.72
2018-07-19T01:41:23.345Z,98138.97
2018-07-19T01:43:52.316Z,98135.45
2018-07-19T01:46:21.267Z,98136.14
2018-07-19T01:48:50.252Z,98136.07
2018-07-19T01:51:19.296Z,98133.37
2018-07-19T01:53:48.293Z,98134.94
2018-07-19T01:56:17.255Z,98139.61
2018-07-19T01:58:46.227Z,98134.13
2018-07-19T02:01:15.151Z,98144.02
2018-07-19T02:03:44.113Z,98141.64
2018-07-19T02:06:13.100Z,98132.75
2018-07-19T02:08:42.194Z,98136.84
2018-07-19T02:11:11.184Z,98139.20
2018-07-19T02:13:40.176Z,98140.98
2018-07-19T02:16:09.152Z,98133.97
2018-07-19T02:18:38.042Z,98130.80
2018-07-19T02:21:07.090Z,98130.03
2018-07-19T02:23:36.152Z,98119.74
2018-07-19T02:26:05.282Z,98123.32
2018-07-19T02:28:34.290Z,98126.22
2018-07-19T02:31:03.346Z,98124.41
2018-07-19T02:33:32.422Z,98119.44
2018-07-19T02:36:01.473Z,98117.77
2018-07-19T02:38:30.497Z,98107.61
2018-07-19T02:40:59.549Z,98117.53
2018-07-19T02:43:28.583Z,98113.42
2018-07-19T02:45:57.547Z,98111.52
2018-07-19T02:48:26.513Z,98116.16
2018-07-19T02:50:55.427Z,98113.38
2018-07-19T02:53:24.439Z,98116.84
2018-07-19T02:55:53.417Z,98118.22
2018-07-19T02:58:22.409Z,98121.27
2018-07-19T03:00:51.360Z,98114.86
2018-07-19T03:03:20.356Z,98118.27
2018-07-19T03:05:49.376Z,98118.27
2018-07-19T03:08:18.535Z,98116.83
2018-07-19T03:10:47.555Z,98110.37
2018-07-19T03:13:16.529Z,98106.80
2018-07-19T03:15:45.560Z,98108.46
2018-07-19T03:18:14.581Z,98108.47
2018-07-19T03:20:43.629Z,98105.08
2018-07-19T03:23:12.586Z,98111.05
2018-07-19T03:25:41.503Z,98104.89
2018-07-19T03:28:10.442Z,98105.76
2018-07-19T03:30:39.437Z,98101.38
2018-07-19T03:33:08.436Z,98098.61
2018-07-19T03:35:37.433Z,98091.50
2018-07-19T03:38:06.486Z,98093.98
2018-07-19T03:40:35.472Z,98090.98
2018-07-19T03:43:04.560Z,98090.16
2018-07-19T03:45:33.544Z,98096.94
2018-07-19T03:48:02.488Z,98098.03
2018-07-19T03:50:31.751Z,98103.81
2018-07-19T03:53:00.784Z,98101.61
2018-07-19T03:55:29.733Z,98100.86
2018-07-19T03:57:58.939Z,98109.42
2018-07-19T04:00:27.933Z,98102.56
2018-07-19T04:02:56.956Z,98111.06
2018-07-19T04:05:26.026Z,98115.25
2018-07-19T04:07:54.975Z,98114.42
2018-07-19T04:10:23.950Z,98122.12
2018-07-19T04:12:53.077Z,98116.41
2018-07-19T04:15:22.095Z,98118.10
2018-07-19T04:17:58.315Z,98113.05
2018-07-19T04:20:30.312Z,98117.48
2018-07-19T04:22:59.304Z,98127.36
2018-07-19T04:25:28.450Z,98125.95
2018-07-19T04:27:57.969Z,98130.69
2018-07-19T04:30:27.075Z,98130.92
2018-07-19T04:32:56.019Z,98132.30
2018-07-19T04:35:25.010Z,98130.62
2018-07-19T04:37:53.931Z,98135.57
2018-07-19T04:40:22.980Z,98133.34
2018-07-19T04:42:51.882Z,98147.63
2018-07-19T04:45:21.000Z,98144.08
2018-07-19T04:47:50.017Z,98147.13
2018-07-19T04:50:19.021Z,98137.84
2018-07-19T04:52:49.578Z,98137.25
2018-07-19T04:55:18.612Z,98139.76
2018-07-19T04:57:47.487Z,98141.41
2018-07-19T05:00:16.685Z,98135.88
2018-07-19T05:02:45.790Z,98138.33
2018-07-19T05:05:14.752Z,98146.85
2018-07-19T05:07:43.753Z,98150.99
2018-07-19T05:10:12.667Z,98153.70
2018-07-19T05:12:41.638Z,98153.16
2018-07-19T05:15:10.590Z,98150.95
2018-07-19T05:17:39.513Z,98146.86
2018-07-19T05:20:08.608Z,98150.17
2018-07-19T05:22:37.590Z,98150.08
2018-07-19T05:25:06.481Z,98145.45
2018-07-19T05:27:35.509Z,98141.88
2018-07-19T05:30:05.202Z,98146.50
2018-07-19T05:32:34.175Z,98136.08
2018-07-19T05:35:03.261Z,98136.98
2018-07-19T05:37:32.157Z,98140.84
2018-07-19T05:40:01.103Z,98136.45
2018-07-19T05:42:30.081Z,98140.87
2018-07-19T05:44:59.056Z,98138.66
2018-07-19T05:47:28.078Z,98138.44
2018-07-19T05:49:56.994Z,98141.73
2018-07-19T05:52:25.975Z,98129.42
2018-07-19T05:54:54.889Z,98121.20
2018-07-19T05:57:23.936Z,98114.08
2018-07-19T05:59:52.988Z,98120.66
2018-07-19T06:02:22.047Z,98119.50
2018-07-19T06:04:51.029Z,98126.66
2018-07-19T06:07:20.012Z,98120.65
2018-07-19T06:09:49.003Z,98118.45
2018-07-19T06:12:17.918Z,98123.06
2018-07-19T06:14:46.940Z,98124.72
2018-07-19T06:17:15.901Z,98124.44
2018-07-19T06:19:44.935Z,98130.18
2018-07-19T06:22:13.963Z,98140.33
2018-07-19T06:24:42.876Z,98140.37
2018-07-19T06:27:11.826Z,98134.61
2018-07-19T06:29:40.838Z,98149.09
2018-07-19T06:32:10.026Z,98138.39
2018-07-19T06:34:39.031Z,98138.70
2018-07-19T06:37:08.436Z,98144.70
2018-07-19T06:39:37.453Z,98138.42
2018-07-19T06:42:06.538Z,98133.49
2018-07-19T06:44:35.718Z,98137.83
2018-07-19T06:47:04.884Z,98128.44
2018-07-19T06:49:33.857Z,98130.89
2018-07-19T06:52:02.871Z,98138.52
2018-07-19T06:54:31.747Z,98125.03
2018-07-19T06:57:00.677Z,98124.00
2018-07-19T06:59:29.630Z,98122.27
2018-07-19T07:01:58.675Z,98123.84
2018-07-19T07:04:27.652Z,98118.64
2018-07-19T07:06:56.680Z,98113.88
2018-07-19T07:09:25.742Z,98113.33
2018-07-19T07:11:54.847Z,98109.55
2018-07-19T07:14:23.887Z,98124.83
2018-07-19T07:16:52.778Z,98126.94
2018-07-19T07:19:21.677Z,98118.64
2018-07-19T07:21:50.687Z,98117.77
2018-07-19T07:24:19.841Z,98120.79
2018-07-19T07:26:49.077Z,98124.30
2018-07-19T07:29:18.174Z,98131.75
2018-07-19T07:31:47.168Z,98142.63
2018-07-19T07:34:16.197Z,98141.58
2018-07-19T07:36:45.201Z,98146.47
2018-07-19T07:39:14.209Z,98139.09
2018-07-19T07:41:43.187Z,98147.84
2018-07-19T07:44:12.261Z,98148.00
2018-07-19T07:46:41.310Z,98165.23
2018-07-19T07:49:10.388Z,98153.32
2018-07-19T07:51:39.479Z,98148.15
2018-07-19T07:54:08.523Z,98155.13
2018-07-19T07:56:37.618Z,98166.19
2018-07-19T07:59:06.648Z,98155.03
2018-07-19T08:01:35.661Z,98154.50
2018-07-19T08:04:04.719Z,98171.48
2018-07-19T08:06:34.041Z,98152.89
2018-07-19T08:09:03.140Z,98160.56
2018-07-19T08:11:32.114Z,98171.95
2018-07-19T08:14:01.189Z,98153.08
2018-07-19T08:16:30.180Z,98163.94
2018-07-19T08:18:59.214Z,98169.90
2018-07-19T08:21:28.296Z,98162.92
2018-07-19T08:23:57.208Z,98162.95
2018-07-19T08:26:26.092Z,98167.69
2018-07-19T08:28:55.131Z,98166.10
2018-07-19T08:31:24.232Z,98181.33
2018-07-19T08:33:53.494Z,98175.24
2018-07-19T08:36:22.530Z,98176.61
2018-07-19T08:38:51.713Z,98194.90
2018-07-19T08:41:20.754Z,98166.58
2018-07-19T08:43:49.819Z,98175.35
2018-07-19T08:46:18.826Z,98170.38
2018-07-19T08:48:48.041Z,98178.11
2018-07-19T08:51:18.449Z,98182.42
2018-07-19T08:53:47.572Z,98173.16
2018-07-19T08:58:45.511Z,98178.87
2018-07-19T09:01:14.675Z,98176.76
2018-07-19T09:03:43.727Z,98179.70
2018-07-19T09:06:12.973Z,98179.47
2018-07-19T09:08:42.116Z,98200.42
2018-07-19T09:11:11.213Z,98188.50
2018-07-19T09:13:40.279Z,98191.05
2018-07-19T09:16:09.271Z,98187.89
2018-07-19T09:18:38.356Z,98183.09
2018-07-19T09:21:07.566Z,98201.03
2018-07-19T09:23:36.703Z,98191.84
2018-07-19T09:26:05.672Z,98185.84
2018-07-19T09:28:34.658Z,98188.69
2018-07-19T09:31:03.653Z,98194.03
2018-07-19T09:33:33.140Z,98180.45
2018-07-19T09:36:02.282Z,98192.20
2018-07-19T09:38:31.420Z,98196.09
2018-07-19T09:41:00.406Z,98194.67
2018-07-19T09:43:29.606Z,98187.36
2018-07-19T09:45:58.608Z,98190.58
2018-07-19T09:48:28.468Z,98190.18
2018-07-19T09:50:57.498Z,98201.58
2018-07-19T09:53:26.526Z,98199.69
2018-07-19T09:55:55.490Z,98200.49
2018-07-19T09:58:24.458Z,98192.35
2018-07-19T10:00:58.603Z,98199.66
2018-07-19T10:03:27.792Z,98200.84
2018-07-19T10:05:56.821Z,98196.61
2018-07-19T10:08:25.879Z,98203.97
2018-07-19T10:10:55.085Z,98204.81
2018-07-19T10:13:24.311Z,98208.86
2018-07-19T10:15:53.426Z,98194.16
2018-07-19T10:18:22.574Z,98206.31
2018-07-19T10:20:51.573Z,98198.87
2018-07-19T10:23:20.557Z,98206.78
2018-07-19T10:25:49.696Z,98188.38
2018-07-19T10:28:18.834Z,98196.59
2018-07-19T10:30:48.402Z,98188.30
2018-07-19T10:33:17.397Z,98200.58
2018-07-19T10:35:46.886Z,98201.43
2018-07-19T10:38:15.905Z,98200.31
2018-07-19T10:40:45.036Z,98208.02
2018-07-19T10:43:14.027Z,98204.78
2018-07-19T10:45:43.072Z,98188.73
2018-07-19T10:48:12.098Z,98202.61
2018-07-19T10:50:41.071Z,98197.17
2018-07-19T10:53:10.204Z,98201.73
2018-07-19T10:55:39.232Z,98197.75
2018-07-19T10:58:08.202Z,98191.85
2018-07-19T11:00:37.201Z,98197.19
2018-07-19T11:03:06.289Z,98187.72
2018-07-19T11:05:35.357Z,98196.14
2018-07-19T11:08:04.946Z,98204.03
2018-07-19T11:10:34.252Z,98185.95
2018-07-19T11:13:03.278Z,98198.23
2018-07-19T11:15:32.309Z,98199.05
2018-07-19T11:18:01.365Z,98190.88
2018-07-19T11:20:30.337Z,98195.02
2018-07-19T11:22:59.320Z,98193.97
2018-07-19T11:25:28.289Z,98199.05
2018-07-19T11:27:57.288Z,98203.41
2018-07-19T11:30:26.364Z,98208.95
2018-07-19T11:32:55.422Z,98205.80
2018-07-19T11:35:24.501Z,98189.58
2018-07-19T11:37:54.555Z,98144.70
2018-07-19T11:40:24.100Z,98205.76
2018-07-19T11:42:53.102Z,98202.27
2018-07-19T11:45:22.286Z,98209.45
2018-07-19T11:47:51.389Z,98202.34
2018-07-19T11:50:20.651Z,98206.59
2018-07-19T11:52:49.705Z,98203.34
2018-07-19T11:55:18.814Z,98194.25
2018-07-19T11:57:47.837Z,98199.02
2018-07-19T12:00:16.910Z,98205.64
2018-07-19T12:02:45.898Z,98201.45
2018-07-19T12:05:14.896Z,98206.58
2018-07-19T12:07:43.864Z,98204.10
2018-07-19T12:10:12.953Z,98199.75
2018-07-19T12:12:42.003Z,98196.48
2018-07-19T12:15:11.051Z,98195.27
2018-07-19T12:17:40.170Z,98195.27
2018-07-19T12:20:09.541Z,98198.48
2018-07-19T12:22:38.594Z,98200.17
2018-07-19T12:25:08.165Z,98196.77
2018-07-19T12:27:37.100Z,98191.83
2018-07-19T12:30:06.363Z,98203.47
2018-07-19T12:32:35.716Z,98198.73
2018-07-19T12:35:04.817Z,98205.25
2018-07-19T12:37:33.812Z,98208.94
2018-07-19T12:40:02.928Z,98207.14
2018-07-19T12:42:32.393Z,98212.98
2018-07-19T12:45:02.013Z,98216.63
2018-07-19T12:47:31.302Z,98210.02
2018-07-19T12:50:00.294Z,98211.23
2018-07-19T12:52:30.445Z,98211.23
2018-07-19T12:54:59.461Z,98211.06
2018-07-19T12:57:28.731Z,98215.88
2018-07-19T12:59:57.707Z,98216.16
2018-07-19T13:02:26.850Z,98214.72
2018-07-19T13:04:55.978Z,98205.95
2018-07-19T13:07:25.916Z,98209.79
2018-07-19T13:09:55.218Z,98211.11
2018-07-19T13:12:24.949Z,98204.80
2018-07-19T13:14:53.916Z,98207.75
2018-07-19T13:17:23.260Z,98212.09
2018-07-19T13:19:52.319Z,98209.34
2018-07-19T13:22:21.459Z,98220.37
2018-07-19T13:24:50.833Z,98206.77
2018-07-19T13:27:20.023Z,98217.47
2018-07-19T13:29:49.188Z,98215.72
2018-07-19T13:32:18.278Z,98222.36
2018-07-19T13:34:48.114Z,98213.86
2018-07-19T13:37:17.212Z,98221.80
2018-07-19T13:39:46.234Z,98219.88
2018-07-19T13:42:15.185Z,98225.94
2018-07-19T13:44:44.133Z,98219.66
2018-07-19T13:47:13.218Z,98222.30
2018-07-19T13:49:42.130Z,98227.98
2018-07-19T13:52:11.179Z,98227.73
2018-07-19T13:54:45.487Z,98236.71
2018-07-19T13:57:14.491Z,98216.09
2018-07-19T13:59:43.633Z,98221.14
2018-07-19T14:02:12.845Z,98212.14
2018-07-19T14:04:41.925Z,98215.34
2018-07-19T14:07:10.928Z,98218.55
2018-07-19T14:09:39.918Z,98220.53
2018-07-19T14:12:08.852Z,98224.20
2018-07-19T14:14:37.748Z,98220.75
2018-07-19T14:17:06.790Z,98211.34
2018-07-19T14:19:35.694Z,98221.04
2018-07-19T14:22:04.603Z,98232.42
2018-07-19T14:24:33.636Z,98223.28
2018-07-19T14:27:02.616Z,98229.47
2018-07-19T14:29:31.564Z,98225.64
2018-07-19T14:32:00.575Z,98236.25
2018-07-19T14:34:29.588Z,98228.80
2018-07-19T14:36:58.525Z,98232.69
2018-07-19T14:39:27.448Z,98227.36
2018-07-19T14:41:56.336Z,98235.02
2018-07-19T14:44:25.247Z,98226.45
2018-07-19T14:46:54.285Z,98226.55
2018-07-19T14:49:23.262Z,98220.13
2018-07-19T14:51:53.054Z,98229.25
2018-07-19T14:54:22.008Z,98231.14
2018-07-19T14:56:51.036Z,98231.77
2018-07-19T14:59:19.953Z,98228.90
2018-07-19T15:01:48.990Z,98247.29
2018-07-19T15:04:18.134Z,98231.72
2018-07-19T15:06:47.171Z,98231.19
2018-07-19T15:09:16.246Z,98246.66
2018-07-19T15:11:45.465Z,98237.21
2018-07-19T15:14:14.476Z,98241.91
2018-07-19T15:16:43.473Z,98232.80
2018-07-19T15:19:12.576Z,98243.14
2018-07-19T15:21:41.630Z,98231.45
2018-07-19T15:24:10.616Z,98234.87
2018-07-19T15:26:39.908Z,98237.68
2018-07-19T15:29:08.898Z,98243.75
2018-07-19T15:31:37.955Z,98247.66
2018-07-19T15:34:07.157Z,98248.13
2018-07-19T15:36:36.232Z,98250.01
2018-07-19T15:39:07.047Z,98242.27
2018-07-19T15:41:36.128Z,98245.36
2018-07-19T15:44:05.161Z,98244.64
2018-07-19T15:46:34.149Z,98253.10
2018-07-19T15:49:03.023Z,98258.77
2018-07-19T15:51:31.946Z,98261.84
2018-07-19T15:54:00.880Z,98264.75
2018-07-19T15:56:29.822Z,98267.27
2018-07-19T15:58:58.759Z,98267.64
2018-07-19T16:01:27.803Z,98267.16
2018-07-19T16:03:56.772Z,98273.19
2018-07-19T16:06:25.892Z,98273.92
2018-07-19T16:08:55.134Z,98274.34
2018-07-19T16:11:24.045Z,98285.48
2018-07-19T16:13:53.164Z,98284.10
2018-07-19T16:16:22.098Z,98287.94
2018-07-19T16:18:51.013Z,98291.43
2018-07-19T16:21:19.977Z,98291.96
2018-07-19T16:23:49.705Z,98303.06
2018-07-19T16:26:18.801Z,98299.64
2018-07-19T16:28:47.738Z,98304.64
2018-07-19T16:31:16.814Z,98324.76
2018-07-19T16:33:45.955Z,98305.90
2018-07-19T16:36:14.963Z,98316.51
2018-07-19T16:38:43.921Z,98314.08
2018-07-19T16:41:12.811Z,98311.10
2018-07-19T16:43:41.766Z,98309.63
2018-07-19T16:46:11.141Z,98310.13
2018-07-19T16:48:40.109Z,98313.39
2018-07-19T16:51:09.057Z,98321.38
2018-07-19T16:53:38.047Z,98317.69
2018-07-19T16:56:07.200Z,98321.48
2018-07-19T16:58:36.092Z,98328.73
2018-07-19T17:01:05.043Z,98336.73
2018-07-19T17:03:33.940Z,98334.27
2018-07-19T17:06:02.854Z,98337.88
2018-07-19T17:08:31.818Z,98334.29
2018-07-19T17:11:00.713Z,98344.47
2018-07-19T17:13:29.569Z,98342.62
2018-07-19T17:15:58.541Z,98343.52
2018-07-19T17:18:27.405Z,98355.06
2018-07-19T17:20:56.220Z,98351.80
2018-07-19T17:23:25.089Z,98359.52
2018-07-19T17:25:54.000Z,98364.99
2018-07-19T17:28:22.804Z,98368.61
2018-07-19T17:30:51.749Z,98373.78
2018-07-19T17:33:20.693Z,98377.95
2018-07-19T17:35:49.721Z,98372.18
2018-07-19T17:38:18.722Z,98373.30
2018-07-19T17:40:47.640Z,98369.47
2018-07-19T17:43:16.490Z,98371.30
2018-07-19T17:45:45.421Z,98370.80
2018-07-19T17:48:14.312Z,98371.97
2018-07-19T17:50:43.184Z,98369.83
2018-07-19T17:53:12.083Z,98376.84
2018-07-19T17:55:41.793Z,98378.52
2018-07-19T17:58:10.691Z,98376.49
2018-07-19T18:00:39.628Z,98379.87
2018-07-19T18:03:08.466Z,98375.80
2018-07-19T18:05:37.374Z,98381.19
2018-07-19T18:08:06.366Z,98384.59
2018-07-19T18:10:35.205Z,98385.11
2018-07-19T18:13:04.103Z,98375.75
2018-07-19T18:15:32.953Z,98377.38
2018-07-19T18:18:02.827Z,98377.39
2018-07-19T18:20:31.728Z,98375.38
2018-07-19T18:23:00.722Z,98374.27
2018-07-19T18:25:29.635Z,98370.52
2018-07-19T18:27:58.538Z,98375.38
2018-07-19T18:30:27.456Z,98379.88
2018-07-19T18:32:56.367Z,98380.38
2018-07-19T18:35:25.276Z,98381.47
2018-07-19T18:37:54.203Z,98376.82
2018-07-19T18:40:23.080Z,98373.44
2018-07-19T18:42:52.481Z,98376.87
2018-07-19T18:45:21.616Z,98386.41
2018-07-19T18:47:50.630Z,98391.16
2018-07-19T18:50:19.685Z,98392.53
2018-07-19T18:52:48.732Z,98403.30
2018-07-19T18:55:18.504Z,98386.05
2018-07-19T18:57:47.437Z,98413.46
2018-07-19T19:00:16.407Z,98414.84
2018-07-19T19:02:45.400Z,98410.45
2018-07-19T19:05:14.334Z,98411.83
2018-07-19T19:07:43.297Z,98410.98
2018-07-19T19:10:12.286Z,98418.94
2018-07-19T19:12:41.388Z,98431.55
2018-07-19T19:15:10.432Z,98425.78
2018-07-19T19:17:39.620Z,98429.89
2018-07-19T19:20:08.557Z,98427.16
2018-07-19T19:22:37.569Z,98430.17
2018-07-19T19:25:23.747Z,98435.91
2018-07-19T19:27:53.065Z,98435.36
2018-07-19T19:30:22.010Z,98439.99
2018-07-19T19:32:50.883Z,98438.10
2018-07-19T19:35:19.823Z,98430.70
2018-07-19T19:37:48.688Z,98429.63
2018-07-19T19:40:17.850Z,98433.99
2018-07-19T19:42:46.812Z,98430.70
2018-07-19T19:45:15.661Z,98426.05
2018-07-19T19:47:44.464Z,98434.55
2018-07-19T19:50:13.947Z,98428.52
2018-07-19T19:52:42.799Z,98429.33
2018-07-19T19:55:13.643Z,98431.80
2018-07-19T19:57:42.461Z,98440.58
2018-07-19T20:00:11.308Z,98438.66
2018-07-19T20:02:40.183Z,98433.73
2018-07-19T20:05:09.040Z,98429.33
2018-07-19T20:07:37.961Z,98432.07
2018-07-19T20:10:07.336Z,98440.28
2018-07-19T20:12:36.921Z,98443.02
2018-07-19T20:15:06.006Z,98437.55
2018-07-19T20:17:34.868Z,98444.88
2018-07-19T20:20:03.854Z,98435.59
2018-07-19T20:22:32.757Z,98441.58
2018-07-19T20:25:01.623Z,98445.20
2018-07-19T20:27:30.465Z,98445.50
2018-07-19T20:29:59.276Z,98439.47
2018-07-19T20:32:28.241Z,98440.84
2018-07-19T20:34:57.108Z,98436.47
2018-07-19T20:37:25.928Z,98433.73
2018-07-19T20:39:54.860Z,98438.94
2018-07-19T20:42:24.577Z,98438.94
2018-07-19T20:44:53.478Z,98441.94
2018-07-19T20:47:22.327Z,98447.68
2018-07-19T20:49:51.267Z,98454.81
2018-07-19T20:52:20.106Z,98451.23
2018-07-19T20:54:48.916Z,98448.78
2018-07-19T20:57:18.432Z,98452.63
2018-07-19T20:59:47.269Z,98457.81
2018-07-19T21:02:16.167Z,98464.66
2018-07-19T21:04:45.247Z,98464.95
2018-07-19T21:07:14.057Z,98474.24
2018-07-19T21:09:43.014Z,98476.16
2018-07-19T21:12:12.086Z,98472.31
2018-07-19T21:14:41.146Z,98476.16
2018-07-19T21:17:10.049Z,98470.97
2018-07-19T21:19:38.893Z,98470.69
2018-07-19T21:22:07.776Z,98463.29
2018-07-19T21:24:36.646Z,98470.14
2018-07-19T21:27:05.717Z,98473.12
2018-07-19T21:29:34.531Z,98464.33
2018-07-19T21:32:03.380Z,98466.47
2018-07-19T21:34:32.224Z,98462.85
2018-07-19T21:37:01.095Z,98471.37
2018-07-19T21:39:29.982Z,98462.61
2018-07-19T21:41:58.836Z,98466.22
2018-07-19T21:44:27.682Z,98468.38
2018-07-19T21:46:56.532Z,98463.70
2018-07-19T21:49:25.428Z,98462.33
2018-07-19T21:51:54.312Z,98463.15
2018-07-19T21:54:23.217Z,98465.34
2018-07-19T21:56:52.088Z,98464.26
2018-07-19T21:59:20.906Z,98466.19
2018-07-19T22:01:49.738Z,98458.50
2018-07-19T22:04:18.629Z,98460.67
2018-07-19T22:06:47.481Z,98463.95
2018-07-19T22:09:16.344Z,98458.49
2018-07-19T22:11:45.267Z,98465.57
2018-07-19T22:14:14.067Z,98461.20
2018-07-19T22:16:42.913Z,98461.47
2018-07-19T22:19:11.750Z,98467.27
2018-07-19T22:21:40.526Z,98464.26
2018-07-19T22:24:09.345Z,98464.20
2018-07-19T22:26:38.437Z,98460.16
2018-07-19T22:29:07.243Z,98465.01
2018-07-19T22:31:36.100Z,98462.33
2018-07-19T22:34:05.051Z,98462.03
2018-07-19T22:36:33.945Z,98454.61
2018-07-19T22:39:02.851Z,98456.23
2018-07-19T22:41:31.745Z,98449.95
2018-07-19T22:44:00.568Z,98455.73
2018-07-19T22:46:29.422Z,98454.31
2018-07-19T22:48:58.245Z,98455.19
2018-07-19T22:51:27.127Z,98464.50
2018-07-19T22:53:55.967Z,98454.37
2018-07-19T22:56:25.396Z,98455.49
2018-07-19T22:58:54.203Z,98451.39
2018-07-19T23:01:23.006Z,98454.08
2018-07-19T23:03:51.855Z,98458.19
2018-07-19T23:06:20.648Z,98449.73
2018-07-19T23:08:49.440Z,98451.39
2018-07-19T23:11:18.336Z,98446.75
2018-07-19T23:13:47.265Z,98445.67
2018-07-19T23:16:16.511Z,98445.38
2018-07-19T23:18:45.425Z,98442.08
2018-07-19T23:21:14.317Z,98440.20
2018-07-19T23:23:43.278Z,98435.56
2018-07-19T23:26:12.177Z,98431.52
2018-07-19T23:28:41.162Z,98432.89
2018-07-19T23:31:10.053Z,98426.59
2018-07-19T23:33:39.006Z,98427.44
2018-07-19T23:36:31.642Z,98433.17
2018-07-19T23:39:18.718Z,98435.09
2018-07-19T23:41:52.429Z,98438.12
2018-07-19T23:44:25.578Z,98443.02
2018-07-19T23:46:58.089Z,98438.13
2018-07-19T23:49:26.956Z,98444.95
2018-07-19T23:51:55.781Z,98439.19
2018-07-19T23:54:24.585Z,98438.66
2018-07-19T23:56:53.510Z,98437.30
2018-07-19T23:59:22.338Z,98429.88
